createdAt,value
2023-02-04T00:00:29.702Z,82.87
2023-02-04T00:02:57.508Z,82.66
2023-02-04T00:05:25.177Z,83.62
2023-02-04T00:07:52.808Z,84.65
2023-02-04T00:10:20.641Z,84.81
2023-02-04T00:12:48.224Z,86.17
2023-02-04T00:15:17.443Z,85.84
2023-02-04T00:17:45.035Z,86.38
2023-02-04T00:20:13.165Z,87.75
2023-02-04T00:22:40.743Z,88.26
2023-02-04T00:25:09.176Z,88.45
2023-02-04T00:27:36.777Z,88.81
2023-02-04T00:30:04.831Z,89.09
2023-02-04T00:32:34.138Z,90.09
2023-02-04T00:35:04.633Z,89.52
2023-02-04T00:37:32.873Z,90.22
2023-02-04T00:40:00.496Z,90.14
2023-02-04T00:42:28.140Z,90.31
2023-02-04T00:44:55.811Z,90.21
2023-02-04T00:47:23.470Z,90.08
2023-02-04T00:49:52.464Z,90.17
2023-02-04T00:52:20.112Z,90.19
2023-02-04T00:54:47.770Z,90.10
2023-02-04T00:57:15.694Z,89.87
2023-02-04T00:59:43.264Z,90.03
2023-02-04T01:02:10.847Z,89.60
2023-02-04T01:04:38.392Z,88.97
2023-02-04T01:07:07.379Z,90.01
2023-02-04T01:09:34.966Z,89.31
2023-02-04T01:12:02.558Z,89.21
2023-02-04T01:14:30.404Z,89.10
2023-02-04T01:16:58.080Z,89.78
2023-02-04T01:19:25.729Z,89.08
2023-02-04T01:21:53.344Z,89.17
2023-02-04T01:24:22.269Z,88.24
2023-02-04T01:26:49.844Z,88.74
2023-02-04T01:29:17.454Z,88.14
2023-02-04T01:31:45.262Z,85.08
2023-02-04T01:34:12.812Z,86.12
2023-02-04T01:36:40.344Z,86.56
2023-02-04T01:39:07.917Z,86.37
2023-02-04T01:41:36.895Z,86.64
2023-02-04T01:44:04.568Z,85.80
2023-02-04T01:46:34.292Z,86.12
2023-02-04T01:49:02.319Z,86.89
2023-02-04T01:51:32.018Z,86.87
2023-02-04T01:54:00.658Z,87.29
2023-02-04T01:56:31.166Z,86.49
2023-02-04T01:59:00.178Z,86.44
2023-02-04T02:01:36.796Z,85.74
2023-02-04T02:04:05.365Z,85.80
2023-02-04T02:06:33.278Z,86.13
2023-02-04T02:09:01.034Z,87.10
2023-02-04T02:11:29.504Z,87.01
2023-02-04T02:13:57.212Z,87.05
2023-02-04T02:16:26.224Z,87.05
2023-02-04T02:18:54.626Z,87.40
2023-02-04T02:21:33.163Z,87.20
2023-02-04T02:24:19.578Z,87.07
2023-02-04T02:26:47.196Z,87.68
2023-02-04T02:29:14.806Z,87.95
2023-02-04T02:31:42.588Z,88.53
2023-02-04T02:34:10.274Z,88.79
2023-02-04T02:36:38.074Z,88.92
2023-02-04T02:39:07.092Z,89.13
2023-02-04T02:41:35.195Z,89.28
2023-02-04T02:44:03.322Z,89.75
2023-02-04T02:46:30.923Z,89.82
2023-02-04T02:48:58.653Z,89.99
2023-02-04T02:51:26.260Z,90.50
2023-02-04T02:53:54.410Z,90.99
2023-02-04T02:56:23.408Z,91.28
2023-02-04T02:58:51.082Z,91.17
2023-02-04T03:01:19.033Z,90.96
2023-02-04T03:03:50.382Z,91.36
2023-02-04T03:06:21.356Z,91.05
2023-02-04T03:08:51.555Z,91.18
2023-02-04T03:11:19.247Z,91.71
2023-02-04T03:13:48.365Z,91.44
2023-02-04T03:16:16.083Z,91.13
2023-02-04T03:18:43.787Z,91.27
2023-02-04T03:21:14.316Z,91.59
2023-02-04T03:23:42.096Z,91.26
2023-02-04T03:26:09.708Z,90.72
2023-02-04T03:28:41.336Z,90.43
2023-02-04T03:31:10.501Z,90.02
2023-02-04T03:33:38.062Z,90.06
2023-02-04T03:36:08.417Z,89.33
2023-02-04T03:38:36.076Z,89.27
2023-02-04T03:41:03.844Z,88.88
2023-02-04T03:43:33.737Z,88.98
2023-02-04T03:46:01.865Z,89.90
2023-02-04T03:48:30.832Z,90.05
2023-02-04T03:50:58.407Z,90.29
2023-02-04T03:53:26.172Z,90.31
2023-02-04T03:55:53.738Z,90.49
2023-02-04T03:58:21.931Z,90.43
2023-02-04T04:00:50.091Z,90.70
2023-02-04T04:03:17.695Z,90.37
2023-02-04T04:05:46.587Z,89.82
2023-02-04T04:08:14.139Z,90.15
2023-02-04T04:10:42.072Z,90.47
2023-02-04T04:13:09.698Z,90.44
2023-02-04T04:15:37.245Z,90.50
2023-02-04T04:18:05.319Z,90.37
2023-02-04T04:20:33.183Z,90.51
2023-02-04T04:23:02.193Z,90.63
2023-02-04T04:25:29.710Z,90.04
2023-02-04T04:27:57.256Z,89.16
2023-02-04T04:30:24.886Z,89.26
2023-02-04T04:32:52.431Z,89.80
2023-02-04T04:35:20.093Z,90.05
2023-02-04T04:37:47.710Z,90.12
2023-02-04T04:40:17.119Z,90.06
2023-02-04T04:42:45.635Z,89.69
2023-02-04T04:45:14.345Z,89.74
2023-02-04T04:47:41.945Z,88.98
2023-02-04T04:50:10.310Z,89.30
2023-02-04T04:52:38.013Z,88.95
2023-02-04T04:55:06.592Z,88.15
2023-02-04T04:57:35.579Z,87.48
2023-02-04T05:00:03.189Z,86.99
2023-02-04T05:02:30.877Z,87.53
2023-02-04T05:04:58.761Z,88.21
2023-02-04T05:07:26.391Z,87.81
2023-02-04T05:09:53.943Z,87.55
2023-02-04T05:12:21.553Z,87.60
2023-02-04T05:14:50.447Z,87.12
2023-02-04T05:17:18.166Z,86.08
2023-02-04T05:19:45.714Z,86.53
2023-02-04T05:22:13.369Z,86.06
2023-02-04T05:24:40.948Z,86.30
2023-02-04T05:27:08.471Z,85.54
2023-02-04T05:29:36.014Z,85.28
2023-02-04T05:32:05.226Z,85.72
2023-02-04T05:34:32.827Z,85.61
2023-02-04T05:37:00.364Z,85.99
2023-02-04T05:39:29.239Z,85.70
2023-02-04T05:41:56.753Z,86.38
2023-02-04T05:44:25.794Z,86.21
2023-02-04T05:46:54.243Z,86.65
2023-02-04T05:49:23.793Z,87.37
2023-02-04T05:51:51.389Z,87.76
2023-02-04T05:54:20.518Z,88.51
2023-02-04T05:56:48.765Z,87.91
2023-02-04T05:59:16.307Z,87.99
2023-02-04T06:01:43.921Z,87.88
2023-02-04T06:04:11.532Z,89.41
2023-02-04T06:06:40.508Z,90.37
2023-02-04T06:09:08.086Z,88.23
2023-02-04T06:11:35.668Z,89.17
2023-02-04T06:14:03.668Z,90.55
2023-02-04T06:16:31.333Z,91.14
2023-02-04T06:18:58.932Z,91.29
2023-02-04T06:21:26.525Z,91.62
2023-02-04T06:23:55.520Z,91.21
2023-02-04T06:26:23.072Z,90.87
2023-02-04T06:28:50.624Z,90.61
2023-02-04T06:31:18.232Z,90.48
2023-02-04T06:33:46.309Z,91.15
2023-02-04T06:36:14.006Z,91.28
2023-02-04T06:38:41.675Z,91.54
2023-02-04T06:41:10.601Z,92.14
2023-02-04T06:43:38.137Z,92.01
2023-02-04T06:46:06.098Z,92.06
2023-02-04T06:48:33.680Z,90.94
2023-02-04T06:51:01.254Z,91.20
2023-02-04T06:53:28.990Z,92.00
2023-02-04T06:55:56.534Z,91.62
2023-02-04T06:58:25.494Z,91.71
2023-02-04T07:00:53.136Z,92.23
2023-02-04T07:03:20.734Z,92.57
2023-02-04T07:05:48.313Z,92.56
2023-02-04T07:08:15.859Z,92.28
2023-02-04T07:10:43.473Z,92.33
2023-02-04T07:13:11.110Z,92.46
2023-02-04T07:15:40.041Z,92.48
2023-02-04T07:18:07.703Z,92.21
2023-02-04T07:20:35.607Z,92.48
2023-02-04T07:23:03.375Z,92.35
2023-02-04T07:25:30.896Z,92.58
2023-02-04T07:27:59.356Z,92.09
2023-02-04T07:30:27.083Z,92.10
2023-02-04T07:32:56.060Z,91.84
2023-02-04T07:35:24.171Z,91.56
2023-02-04T07:37:51.859Z,91.68
2023-02-04T07:40:19.699Z,91.62
2023-02-04T07:42:47.360Z,91.55
2023-02-04T07:45:15.276Z,90.74
2023-02-04T07:47:42.901Z,90.87
2023-02-04T07:50:11.962Z,90.62
2023-02-04T07:52:39.676Z,90.82
2023-02-04T07:55:08.110Z,90.57
2023-02-04T07:57:36.091Z,90.43
2023-02-04T08:00:03.678Z,89.92
2023-02-04T08:02:31.256Z,90.18
2023-02-04T08:04:58.851Z,89.81
2023-02-04T08:07:27.755Z,88.95
2023-02-04T08:09:55.307Z,89.30
2023-02-04T08:12:22.938Z,89.48
2023-02-04T08:14:50.527Z,89.00
2023-02-04T08:17:18.107Z,88.72
2023-02-04T08:19:45.708Z,88.55
2023-02-04T08:22:13.298Z,87.89
2023-02-04T08:24:42.245Z,88.07
2023-02-04T08:27:10.558Z,87.68
2023-02-04T08:29:38.693Z,87.88
2023-02-04T08:32:07.426Z,88.12
2023-02-04T08:34:35.115Z,87.82
2023-02-04T08:37:02.755Z,87.64
2023-02-04T08:39:30.660Z,87.39
2023-02-04T08:41:59.882Z,87.15
2023-02-04T08:44:27.455Z,87.21
2023-02-04T08:46:55.104Z,87.15
2023-02-04T08:49:22.966Z,87.26
2023-02-04T08:51:50.580Z,87.75
2023-02-04T08:54:18.170Z,86.60
2023-02-04T08:56:45.920Z,87.06
2023-02-04T08:59:14.900Z,86.10
2023-02-04T09:01:42.587Z,85.21
2023-02-04T09:04:10.219Z,84.90
2023-02-04T09:06:38.149Z,85.09
2023-02-04T09:09:05.758Z,84.80
2023-02-04T09:11:33.354Z,82.94
2023-02-04T09:14:00.939Z,82.89
2023-02-04T09:16:30.255Z,83.08
2023-02-04T09:18:58.943Z,82.83
2023-02-04T09:21:27.066Z,83.15
2023-02-04T09:23:54.738Z,83.12
2023-02-04T09:26:22.579Z,82.15
2023-02-04T09:28:50.108Z,82.32
2023-02-04T09:31:17.831Z,82.37
2023-02-04T09:33:47.044Z,83.23
2023-02-04T09:36:14.625Z,82.25
2023-02-04T09:38:42.244Z,79.63
2023-02-04T09:41:13.243Z,79.43
2023-02-04T09:43:44.611Z,78.23
2023-02-04T09:46:21.075Z,79.02
2023-02-04T09:48:51.136Z,79.65
2023-02-04T09:51:21.680Z,80.99
2023-02-04T09:53:50.991Z,77.61
2023-02-04T09:56:19.232Z,78.59
2023-02-04T09:58:46.995Z,75.85
2023-02-04T10:01:16.921Z,72.78
2023-02-04T10:03:47.492Z,71.31
2023-02-04T10:06:18.375Z,70.50
2023-02-04T10:08:47.527Z,68.44
2023-02-04T10:11:16.313Z,70.10
2023-02-04T10:13:47.740Z,68.29
2023-02-04T10:16:18.028Z,69.13
2023-02-04T10:18:46.162Z,69.28
2023-02-04T10:21:18.705Z,69.20
2023-02-04T10:23:49.763Z,69.91
2023-02-04T10:26:18.354Z,69.21
2023-02-04T10:28:47.111Z,69.45
2023-02-04T10:31:33.870Z,69.77
2023-02-04T10:34:23.699Z,68.60
2023-02-04T10:36:55.350Z,67.76
2023-02-04T10:39:24.217Z,68.66
2023-02-04T10:41:53.416Z,68.74
2023-02-04T10:44:27.777Z,69.10
2023-02-04T10:47:00.748Z,68.53
2023-02-04T10:49:28.428Z,70.24
2023-02-04T10:51:57.942Z,69.15
2023-02-04T10:54:30.585Z,69.91
2023-02-04T10:56:59.728Z,68.62
2023-02-04T10:59:29.095Z,69.43
2023-02-04T11:01:58.566Z,69.31
2023-02-04T11:04:27.133Z,70.47
2023-02-04T11:06:55.314Z,71.37
2023-02-04T11:09:24.318Z,68.41
2023-02-04T11:11:52.646Z,67.90
2023-02-04T11:14:25.745Z,68.50
2023-02-04T11:16:54.647Z,67.46
2023-02-04T11:19:34.254Z,64.16
2023-02-04T11:22:21.531Z,63.30
2023-02-04T11:24:51.022Z,63.91
2023-02-04T11:27:25.018Z,63.74
2023-02-04T11:29:53.306Z,63.88
2023-02-04T11:32:37.781Z,62.41
2023-02-04T11:35:28.642Z,61.33
2023-02-04T11:37:56.830Z,60.36
2023-02-04T11:40:29.785Z,62.68
2023-02-04T11:43:22.453Z,61.26
2023-02-04T11:45:50.117Z,61.42
2023-02-04T11:48:20.755Z,59.08
2023-02-04T11:50:56.613Z,54.51
2023-02-04T11:53:26.453Z,50.78
2023-02-04T11:55:55.391Z,51.25
2023-02-04T11:58:25.959Z,47.63
2023-02-04T12:00:54.291Z,46.75
2023-02-04T12:03:25.016Z,50.72
2023-02-04T12:05:54.853Z,55.33
2023-02-04T12:08:28.469Z,55.48
2023-02-04T12:11:05.630Z,55.34
2023-02-04T12:13:33.742Z,57.84
2023-02-04T12:16:03.026Z,57.39
2023-02-04T12:18:31.806Z,60.04
2023-02-04T12:21:00.716Z,59.67
2023-02-04T12:23:30.038Z,59.25
2023-02-04T12:25:58.338Z,57.09
2023-02-04T12:28:28.970Z,58.93
2023-02-04T12:30:56.843Z,57.93
2023-02-04T12:33:24.461Z,53.40
2023-02-04T12:35:52.104Z,51.98
2023-02-04T12:38:20.673Z,47.60
2023-02-04T12:40:48.472Z,49.44
2023-02-04T12:43:16.110Z,46.39
2023-02-04T12:45:46.268Z,47.10
2023-02-04T12:48:15.050Z,47.23
2023-02-04T12:50:45.126Z,46.68
2023-02-04T12:53:12.930Z,43.93
2023-02-04T12:55:40.525Z,45.43
2023-02-04T12:58:08.070Z,46.83
2023-02-04T13:00:35.644Z,51.50
2023-02-04T13:03:05.217Z,51.39
2023-02-04T13:05:33.199Z,50.99
2023-02-04T13:08:00.997Z,55.24
2023-02-04T13:10:28.711Z,54.94
2023-02-04T13:12:56.386Z,57.04
2023-02-04T13:15:24.786Z,59.44
2023-02-04T13:17:52.388Z,57.22
2023-02-04T13:20:21.654Z,58.38
2023-02-04T13:22:49.492Z,57.18
2023-02-04T13:25:17.158Z,57.34
2023-02-04T13:27:44.783Z,58.15
2023-02-04T13:30:15.158Z,56.60
2023-02-04T13:32:43.496Z,51.70
2023-02-04T13:35:11.193Z,48.77
2023-02-04T13:37:40.203Z,44.20
2023-02-04T13:40:09.432Z,44.38
2023-02-04T13:42:37.000Z,42.11
2023-02-04T13:45:04.950Z,42.28
2023-02-04T13:47:32.561Z,41.94
2023-02-04T13:50:00.224Z,43.50
2023-02-04T13:52:27.766Z,44.12
2023-02-04T13:54:56.882Z,45.27
2023-02-04T13:57:24.436Z,49.17
2023-02-04T13:59:52.074Z,50.88
2023-02-04T14:02:21.180Z,52.26
2023-02-04T14:04:48.788Z,53.44
2023-02-04T14:07:16.336Z,55.67
2023-02-04T14:09:43.898Z,54.86
2023-02-04T14:12:13.216Z,55.12
2023-02-04T14:14:40.833Z,55.36
2023-02-04T14:17:08.372Z,54.76
2023-02-04T14:19:35.961Z,54.83
2023-02-04T14:22:03.843Z,54.63
2023-02-04T14:24:32.251Z,55.12
2023-02-04T14:27:01.159Z,55.28
2023-02-04T14:29:30.256Z,51.87
2023-02-04T14:31:57.929Z,49.65
2023-02-04T14:34:25.511Z,50.13
2023-02-04T14:36:53.053Z,48.89
2023-02-04T14:39:20.685Z,48.83
2023-02-04T14:41:48.251Z,51.72
2023-02-04T14:44:20.422Z,53.60
2023-02-04T14:46:49.765Z,55.09
2023-02-04T14:49:18.274Z,55.27
2023-02-04T14:51:45.869Z,54.51
2023-02-04T14:54:13.673Z,54.99
2023-02-04T14:56:41.357Z,55.29
2023-02-04T14:59:08.983Z,54.66
2023-02-04T15:01:36.737Z,55.21
2023-02-04T15:04:05.818Z,55.69
2023-02-04T15:06:33.355Z,55.63
2023-02-04T15:09:00.921Z,58.11
2023-02-04T15:11:28.481Z,56.79
2023-02-04T15:13:56.032Z,57.17
2023-02-04T15:16:23.977Z,57.95
2023-02-04T15:18:51.875Z,58.65
2023-02-04T15:21:21.061Z,59.72
2023-02-04T15:23:48.723Z,60.41
2023-02-04T15:26:16.395Z,61.24
2023-02-04T15:28:43.974Z,62.12
2023-02-04T15:31:12.247Z,62.72
2023-02-04T15:33:40.824Z,63.17
2023-02-04T15:36:08.931Z,63.68
2023-02-04T15:38:37.918Z,63.86
2023-02-04T15:41:05.907Z,63.36
2023-02-04T15:43:33.492Z,62.98
2023-02-04T15:46:01.132Z,63.43
2023-02-04T15:48:29.165Z,63.12
2023-02-04T15:50:56.773Z,63.29
2023-02-04T15:53:24.723Z,64.31
2023-02-04T15:55:53.758Z,65.53
2023-02-04T15:58:21.344Z,64.81
2023-02-04T16:00:48.922Z,64.86
2023-02-04T16:03:16.570Z,65.63
2023-02-04T16:05:44.159Z,66.32
2023-02-04T16:08:11.872Z,66.84
2023-02-04T16:10:39.498Z,66.42
2023-02-04T16:13:08.736Z,67.82
2023-02-04T16:15:37.204Z,69.10
2023-02-04T16:18:05.035Z,69.16
2023-02-04T16:20:32.890Z,70.26
2023-02-04T16:23:02.152Z,70.91
2023-02-04T16:25:29.733Z,72.04
2023-02-04T16:27:57.324Z,73.23
2023-02-04T16:30:26.368Z,74.36
2023-02-04T16:32:54.047Z,75.21
2023-02-04T16:35:21.722Z,75.36
2023-02-04T16:40:18.132Z,76.66
2023-02-04T16:42:45.724Z,77.71
2023-02-04T16:45:13.489Z,79.02
2023-02-04T16:47:42.517Z,79.47
2023-02-04T16:50:11.488Z,79.49
2023-02-04T16:52:38.991Z,79.64
2023-02-04T16:55:07.141Z,79.97
2023-02-04T16:57:34.689Z,80.57
2023-02-04T17:00:02.309Z,80.85
2023-02-04T17:02:29.962Z,80.71
2023-02-04T17:04:58.946Z,80.12
2023-02-04T17:07:26.485Z,80.77
2023-02-04T17:09:54.020Z,80.60
2023-02-04T17:12:21.587Z,81.33
2023-02-04T17:14:49.199Z,81.73
2023-02-04T17:17:18.173Z,82.11
2023-02-04T17:19:45.867Z,81.68
2023-02-04T17:22:15.064Z,82.43
2023-02-04T17:24:43.668Z,82.43
2023-02-04T17:27:11.801Z,83.07
2023-02-04T17:29:39.651Z,82.75
2023-02-04T17:32:08.598Z,83.39
2023-02-04T17:34:36.156Z,83.35
2023-02-04T17:37:03.761Z,84.06
2023-02-04T17:39:32.685Z,84.45
2023-02-04T17:42:00.223Z,84.88
2023-02-04T17:44:28.464Z,84.42
2023-02-04T17:46:57.368Z,84.96
2023-02-04T17:49:25.116Z,84.80
2023-02-04T17:51:52.669Z,85.25
2023-02-04T17:54:20.308Z,86.14
2023-02-04T17:56:49.286Z,86.02
2023-02-04T17:59:16.889Z,85.42
2023-02-04T18:01:44.817Z,86.14
2023-02-04T18:04:13.685Z,86.20
2023-02-04T18:06:41.890Z,86.51
2023-02-04T18:09:16.048Z,86.85
2023-02-04T18:11:44.241Z,86.72
2023-02-04T18:14:16.758Z,86.57
2023-02-04T18:16:45.908Z,87.24
2023-02-04T18:19:21.112Z,86.88
2023-02-04T18:21:51.146Z,87.40
2023-02-04T18:24:21.807Z,87.63
2023-02-04T18:26:51.641Z,87.86
2023-02-04T18:29:31.340Z,88.18
2023-02-04T18:32:01.714Z,88.39
2023-02-04T18:34:36.088Z,88.62
2023-02-04T18:37:23.239Z,88.38
2023-02-04T18:39:51.103Z,88.14
2023-02-04T18:42:25.631Z,88.77
2023-02-04T18:44:56.703Z,88.75
2023-02-04T18:47:32.467Z,88.92
2023-02-04T18:50:01.681Z,88.22
2023-02-04T18:52:37.215Z,88.91
2023-02-04T18:55:19.332Z,89.13
2023-02-04T18:57:46.967Z,88.83
2023-02-04T19:00:32.698Z,88.64
2023-02-04T19:03:05.359Z,88.78
2023-02-04T19:05:38.149Z,89.34
2023-02-04T19:08:23.583Z,89.12
2023-02-04T19:10:52.800Z,87.88
2023-02-04T19:13:23.135Z,87.14
2023-02-04T19:15:57.630Z,86.34
2023-02-04T19:18:28.096Z,84.40
2023-02-04T19:20:56.004Z,84.41
2023-02-04T19:23:25.471Z,85.33
2023-02-04T19:25:53.771Z,86.43
2023-02-04T19:28:28.997Z,86.30
2023-02-04T19:31:00.685Z,87.28
2023-02-04T19:33:33.817Z,87.77
2023-02-04T19:36:37.556Z,88.00
2023-02-04T19:39:17.539Z,88.18
2023-02-04T19:41:49.193Z,88.00
2023-02-04T19:44:37.831Z,88.93
2023-02-04T19:47:37.083Z,88.36
2023-02-04T19:50:22.796Z,88.98
2023-02-04T19:52:52.806Z,88.66
2023-02-04T19:55:29.844Z,88.71
2023-02-04T19:58:00.566Z,89.00
2023-02-04T20:00:46.513Z,88.70
2023-02-04T20:03:25.685Z,89.29
2023-02-04T20:05:53.739Z,88.90
2023-02-04T20:08:45.184Z,89.52
2023-02-04T20:11:35.609Z,89.23
2023-02-04T20:14:22.130Z,89.58
2023-02-04T20:16:52.672Z,89.57
2023-02-04T20:19:26.635Z,89.05
2023-02-04T20:22:05.398Z,89.00
2023-02-04T20:24:36.181Z,89.23
2023-02-04T20:27:11.977Z,89.48
2023-02-04T20:29:39.571Z,90.00
2023-02-04T20:32:18.233Z,90.27
2023-02-04T20:34:47.280Z,89.84
2023-02-04T20:37:23.508Z,89.75
2023-02-04T20:39:51.068Z,90.01
2023-02-04T20:42:35.175Z,90.46
2023-02-04T20:45:22.059Z,90.91
2023-02-04T20:47:53.007Z,90.68
2023-02-04T20:50:41.352Z,91.32
2023-02-04T20:53:32.966Z,91.21
2023-02-04T20:56:04.637Z,91.34
2023-02-04T20:58:37.826Z,91.41
2023-02-04T21:01:20.485Z,91.67
2023-02-04T21:03:50.257Z,91.34
2023-02-04T21:06:27.623Z,91.79
2023-02-04T21:08:57.618Z,91.99
2023-02-04T21:11:25.692Z,92.26
2023-02-04T21:13:55.019Z,91.58
2023-02-04T21:16:22.925Z,91.66
2023-02-04T21:18:50.785Z,91.67
2023-02-04T21:21:20.315Z,91.55
2023-02-04T21:23:49.633Z,91.76
2023-02-04T21:26:17.361Z,91.87
2023-02-04T21:28:45.341Z,91.63
2023-02-04T21:31:13.164Z,91.72
2023-02-04T21:33:40.891Z,92.01
2023-02-04T21:36:09.670Z,92.39
2023-02-04T21:38:37.618Z,92.47
2023-02-04T21:41:06.775Z,92.93
2023-02-04T21:43:34.339Z,92.58
2023-02-04T21:46:01.957Z,93.04
2023-02-04T21:48:29.616Z,92.49
2023-02-04T21:50:57.468Z,93.27
2023-02-04T21:53:25.241Z,93.42
2023-02-04T21:55:52.818Z,92.92
2023-02-04T21:58:21.802Z,92.95
2023-02-04T22:00:49.382Z,92.79
2023-02-04T22:03:17.431Z,92.92
2023-02-04T22:05:45.664Z,92.85
2023-02-04T22:08:13.461Z,93.12
2023-02-04T22:10:41.094Z,93.52
2023-02-04T22:13:26.446Z,93.32
2023-02-04T22:15:55.487Z,93.46
2023-02-04T22:18:23.199Z,93.58
2023-02-04T22:20:50.968Z,93.41
2023-02-04T22:23:18.566Z,93.61
2023-02-04T22:25:46.161Z,93.46
2023-02-04T22:28:14.100Z,93.45
2023-02-04T22:30:41.678Z,94.00
2023-02-04T22:33:11.668Z,93.86
2023-02-04T22:35:39.219Z,93.93
2023-02-04T22:38:06.846Z,93.79
2023-02-04T22:40:34.527Z,94.02
2023-02-04T22:43:02.102Z,94.26
2023-02-04T22:45:29.660Z,94.16
2023-02-04T22:47:57.274Z,94.12
2023-02-04T22:50:26.273Z,94.06
2023-02-04T22:52:54.003Z,93.81
2023-02-04T22:55:21.552Z,93.61
2023-02-04T22:57:49.131Z,93.80
2023-02-04T23:00:17.276Z,93.85
2023-02-04T23:02:45.053Z,93.91
2023-02-04T23:05:12.636Z,94.04
2023-02-04T23:07:41.578Z,93.67
2023-02-04T23:10:09.599Z,93.79
2023-02-04T23:12:37.250Z,93.73
2023-02-04T23:15:05.232Z,93.74
2023-02-04T23:17:32.881Z,93.80
2023-02-04T23:20:00.550Z,93.92
2023-02-04T23:22:28.312Z,94.08
2023-02-04T23:24:57.314Z,94.29
2023-02-04T23:27:25.353Z,94.12
2023-02-04T23:29:52.945Z,93.95
2023-02-04T23:32:20.566Z,93.88
2023-02-04T23:34:48.197Z,94.06
2023-02-04T23:37:15.853Z,93.92
2023-02-04T23:39:43.403Z,93.92
2023-02-04T23:42:12.595Z,94.29
2023-02-04T23:44:40.197Z,94.15
2023-02-04T23:47:08.175Z,94.64
2023-02-04T23:49:35.689Z,94.26
2023-02-04T23:52:03.572Z,94.60
2023-02-04T23:54:31.199Z,94.63
2023-02-04T23:56:58.810Z,94.21
2023-02-04T23:59:28.008Z,94.46
